Time;durP1;ratioP1;P1;durP2;ratioP2;P2;SDS_P1;SDS_P2;PMS_P1;PMS_P2;Temp;Humidity;BMP_temperature;BMP_pressure;BME280_temperature;BME280_humidity;BME280_pressure;Samples;Min_cycle;Max_cycle;Signal;HPM_P1;HPM_P2
2022/03/13 00:01:37;;;;;;;179.93;56.80;;;;;;;-2.67;38.30;99553.28;5009773;28;20081;-63
2022/03/13 00:04:03;;;;;;;151.60;48.40;;;;;;;-2.71;38.70;99550.13;5007138;28;20399;-63
2022/03/13 00:06:35;;;;;;;138.68;47.58;;;;;;;-2.73;38.72;99550.31;5009718;28;20018;-63
2022/03/13 00:09:02;;;;;;;152.27;49.08;;;;;;;-2.76;38.64;99550.69;5009931;28;20042;-63
2022/03/13 00:11:29;;;;;;;151.88;50.38;;;;;;;-2.81;39.24;99554.91;5010049;28;20030;-63
2022/03/13 00:13:54;;;;;;;159.32;50.40;;;;;;;-2.88;39.41;99554.81;5009477;28;20033;-63
2022/03/13 00:16:21;;;;;;;160.25;49.63;;;;;;;-2.95;39.01;99556.53;5010893;28;20018;-63
2022/03/13 00:18:47;;;;;;;136.05;45.78;;;;;;;-3.00;39.76;99555.22;5013427;28;20053;-63
2022/03/13 00:21:19;;;;;;;123.55;42.40;;;;;;;-3.04;39.13;99553.91;5013642;28;20026;-63
2022/03/13 00:23:47;;;;;;;116.93;41.13;;;;;;;-3.05;39.66;99551.44;5010718;28;20101;-63
2022/03/13 00:26:14;;;;;;;110.07;38.70;;;;;;;-3.09;39.68;99545.59;5013345;28;20018;-63
2022/03/13 00:28:39;;;;;;;89.53;33.20;;;;;;;-3.11;39.46;99544.09;5013414;28;20028;-64
2022/03/13 00:31:06;;;;;;;73.38;30.55;;;;;;;-3.14;39.85;99550.66;5014337;28;20021;-63
2022/03/13 00:33:32;;;;;;;65.32;26.58;;;;;;;-3.16;39.89;99540.09;5014515;28;20053;-63
2022/03/13 00:35:57;;;;;;;56.03;21.00;;;;;;;-3.14;40.01;99543.44;5014428;28;20127;-63
2022/03/13 00:38:25;;;;;;;50.22;22.42;;;;;;;-3.08;39.88;99544.59;5014068;28;20397;-63
2022/03/13 00:40:55;;;;;;;48.22;23.15;;;;;;;-2.99;39.56;99537.28;5013964;28;20045;-63
2022/03/13 00:43:22;;;;;;;54.65;23.55;;;;;;;-2.91;39.37;99534.53;5013546;28;20117;-63
2022/03/13 00:45:48;;;;;;;67.43;27.48;;;;;;;-2.85;39.22;99533.78;5014025;28;20037;-63
2022/03/13 00:48:14;;;;;;;72.10;27.17;;;;;;;-2.75;39.56;99536.22;5014082;28;20116;-63
2022/03/13 00:50:39;;;;;;;82.03;29.08;;;;;;;-2.67;39.35;99535.31;5014118;28;20033;-63
2022/03/13 00:53:05;;;;;;;84.90;31.65;;;;;;;-2.57;39.28;99529.66;5014206;28;20034;-63
2022/03/13 00:55:31;;;;;;;71.82;29.08;;;;;;;-2.51;39.13;99528.09;5012674;28;20044;-64
2022/03/13 00:57:57;;;;;;;75.22;29.05;;;;;;;-2.49;38.97;99529.56;5013812;28;20033;-64
2022/03/13 01:00:22;;;;;;;84.47;32.83;;;;;;;-2.48;38.95;99528.56;5013935;28;20037;-63
2022/03/13 01:02:49;;;;;;;79.88;29.98;;;;;;;-2.48;39.17;99528.56;5012784;28;20044;-64
2022/03/13 01:05:22;;;;;;;76.07;28.92;;;;;;;-2.44;39.01;99532.53;5013963;28;20033;-63
2022/03/13 01:07:48;;;;;;;79.50;31.88;;;;;;;-2.41;39.14;99528.66;5010262;28;20053;-64
2022/03/13 01:10:13;;;;;;;83.97;31.73;;;;;;;-2.45;39.45;99532.75;5012659;28;20085;-63
2022/03/13 01:12:39;;;;;;;97.50;35.75;;;;;;;-2.43;39.15;99523.47;5012795;28;20352;-63
2022/03/13 01:15:05;;;;;;;143.60;48.33;;;;;;;-2.46;39.18;99529.22;5013604;28;20076;-64
2022/03/13 01:17:31;;;;;;;132.98;47.92;;;;;;;-2.51;39.27;99525.41;5012155;28;20030;-64
2022/03/13 01:19:56;;;;;;;149.75;50.03;;;;;;;-2.55;39.38;99522.25;5013611;28;20034;-63
2022/03/13 01:22:21;;;;;;;158.45;54.08;;;;;;;-2.59;39.41;99527.16;5013742;28;20034;-64
2022/03/13 01:24:47;;;;;;;154.68;52.67;;;;;;;-2.64;39.59;99509.91;5013425;28;20061;-63
2022/03/13 01:27:15;;;;;;;163.57;55.80;;;;;;;-2.72;39.69;99517.06;5013062;28;20349;-64
2022/03/13 01:29:41;;;;;;;164.93;56.75;;;;;;;-2.74;39.69;99512.88;5013578;28;20029;-64
2022/03/13 01:32:09;;;;;;;160.13;51.78;;;;;;;-2.75;39.50;99508.53;5013273;28;20064;-63
2022/03/13 01:34:35;;;;;;;145.73;50.25;;;;;;;-2.77;39.73;99515.94;5013051;28;20038;-63
2022/03/13 01:37:01;;;;;;;144.68;48.70;;;;;;;-2.78;40.09;99515.13;5013597;28;20037;-64
2022/03/13 01:39:27;;;;;;;146.10;49.83;;;;;;;-2.81;39.69;99520.00;5013458;28;20029;-64
2022/03/13 01:41:53;;;;;;;143.23;48.97;;;;;;;-2.86;39.39;99513.34;5012809;28;20482;-63
2022/03/13 01:44:20;;;;;;;126.18;43.72;;;;;;;-2.87;39.85;99513.53;5012064;28;20026;-64
2022/03/13 01:46:46;;;;;;;134.40;43.65;;;;;;;-2.89;40.06;99505.66;5012647;28;20026;-63
2022/03/13 01:49:11;;;;;;;130.50;45.80;;;;;;;-2.89;39.88;99507.50;5012458;28;20383;-65
2022/03/13 01:51:38;;;;;;;124.97;45.35;;;;;;;-2.89;39.99;99500.28;5012281;28;20558;-64
2022/03/13 01:54:11;;;;;;;136.77;45.78;;;;;;;-2.86;40.35;99507.13;5012375;28;20474;-63
2022/03/13 01:56:38;;;;;;;138.80;48.22;;;;;;;-2.89;39.91;99497.59;5013024;28;20398;-64
2022/03/13 01:59:06;;;;;;;119.18;43.63;;;;;;;-2.85;40.11;99503.44;5013133;28;20088;-63
2022/03/13 02:01:33;;;;;;;124.53;44.70;;;;;;;-2.88;39.91;99503.78;5012854;28;20430;-64
2022/03/13 02:03:58;;;;;;;130.05;42.95;;;;;;;-2.90;40.03;99497.78;5010639;28;20034;-63
2022/03/13 02:06:24;;;;;;;112.55;40.95;;;;;;;-2.89;39.94;99504.81;5010591;28;20034;-64
2022/03/13 02:08:51;;;;;;;111.30;41.47;;;;;;;-2.90;40.30;99501.31;5012156;28;20046;-64
2022/03/13 02:11:21;;;;;;;109.82;39.95;;;;;;;-2.90;39.82;99495.09;5012280;28;20030;-63
2022/03/13 02:13:49;;;;;;;116.30;44.35;;;;;;;-2.94;40.32;99496.47;5011959;28;20033;-64
2022/03/13 02:16:16;;;;;;;110.95;42.88;;;;;;;-2.95;40.44;99501.00;5012355;28;20587;-64
2022/03/13 02:18:46;;;;;;;119.75;43.28;;;;;;;-2.93;40.12;99501.66;5010900;28;20048;-63
2022/03/13 02:21:11;;;;;;;101.18;40.10;;;;;;;-2.93;40.08;99501.66;5013013;28;20397;-64
2022/03/13 02:23:37;;;;;;;119.22;43.38;;;;;;;-2.96;40.19;99499.34;5011307;28;20036;-64
2022/03/13 02:26:06;;;;;;;109.10;42.83;;;;;;;-2.96;39.81;99506.56;5011799;28;20026;-63
2022/03/13 02:28:34;;;;;;;110.43;41.92;;;;;;;-2.98;40.28;99496.00;5012106;28;20529;-63
2022/03/13 02:31:11;;;;;;;113.60;42.55;;;;;;;-2.97;39.79;99492.31;5012331;28;20133;-64
2022/03/13 02:33:36;;;;;;;117.85;44.70;;;;;;;-2.94;40.36;99493.78;5008487;28;20029;-63
2022/03/13 02:36:05;;;;;;;108.18;41.25;;;;;;;-2.93;40.28;99492.75;5011509;28;20034;-64
2022/03/13 02:38:31;;;;;;;117.43;45.90;;;;;;;-2.96;40.43;99487.75;5011386;28;20758;-64
2022/03/13 02:40:58;;;;;;;122.57;46.17;;;;;;;-2.99;40.62;99480.91;5012378;28;20022;-64
2022/03/13 02:43:24;;;;;;;139.65;52.47;;;;;;;-2.96;40.64;99480.56;5012255;28;20026;-66
2022/03/13 02:45:52;;;;;;;166.70;59.22;;;;;;;-2.89;40.82;99468.06;5012161;28;20026;-66
2022/03/13 02:48:18;;;;;;;146.95;54.38;;;;;;;-2.85;41.01;99466.66;5012023;28;20029;-65
2022/03/13 02:50:44;;;;;;;156.95;54.45;;;;;;;-2.91;40.67;99470.09;5010559;28;20022;-63
2022/03/13 02:53:10;;;;;;;146.13;55.03;;;;;;;-2.93;40.70;99480.19;5011912;28;20025;-64
2022/03/13 02:55:35;;;;;;;141.52;53.78;;;;;;;-2.96;40.98;99477.03;5011491;28;20022;-64
2022/03/13 02:58:01;;;;;;;138.43;51.28;;;;;;;-3.00;41.05;99482.75;5011840;28;20037;-64
2022/03/13 03:00:48;;;;;;;146.88;53.08;;;;;;;-3.03;40.93;99476.94;5009767;28;21624;-64
2022/03/13 03:03:16;;;;;;;142.52;52.60;;;;;;;-3.03;40.92;99480.44;5005101;28;20030;-64
2022/03/13 03:05:41;;;;;;;136.93;50.53;;;;;;;-3.08;41.26;99485.53;5010839;28;20038;-64
2022/03/13 03:08:07;;;;;;;144.43;51.78;;;;;;;-3.16;41.04;99478.38;5011132;28;20049;-64
2022/03/13 03:10:34;;;;;;;151.85;54.08;;;;;;;-3.19;40.82;99478.75;5008911;28;20030;-63
2022/03/13 03:12:59;;;;;;;146.02;52.40;;;;;;;-3.24;40.78;99480.31;5008477;28;20030;-63
2022/03/13 03:15:26;;;;;;;143.60;51.03;;;;;;;-3.29;41.49;99480.88;5009969;28;20041;-62
2022/03/13 03:17:53;;;;;;;137.07;51.72;;;;;;;-3.35;41.49;99479.72;5009721;28;20048;-62
2022/03/13 03:20:18;;;;;;;138.63;51.35;;;;;;;-3.39;41.31;99475.72;5009095;28;20068;-63
2022/03/13 03:22:44;;;;;;;142.10;52.05;;;;;;;-3.44;41.73;99472.75;5008327;28;20540;-63
2022/03/13 03:25:09;;;;;;;125.85;49.13;;;;;;;-3.49;41.17;99465.25;5012755;28;20470;-63
2022/03/13 03:27:35;;;;;;;143.93;52.47;;;;;;;-3.55;41.53;99468.63;5009172;28;20046;-62
2022/03/13 03:30:00;;;;;;;129.63;48.92;;;;;;;-3.54;41.55;99469.50;5012218;28;20026;-63
2022/03/13 03:32:26;;;;;;;137.80;49.00;;;;;;;-3.60;41.76;99465.66;5009329;28;20386;-63
2022/03/13 03:34:53;;;;;;;147.63;53.15;;;;;;;-3.63;41.67;99474.91;5010544;28;20057;-63
2022/03/13 03:37:19;;;;;;;131.68;48.47;;;;;;;-3.63;41.66;99464.19;5010256;28;20030;-63
2022/03/13 03:39:44;;;;;;;131.00;48.53;;;;;;;-3.66;41.54;99464.53;5010273;28;20532;-63
2022/03/13 03:42:09;;;;;;;131.05;49.05;;;;;;;-3.68;42.08;99463.06;5009564;28;20385;-63
2022/03/13 03:44:35;;;;;;;131.75;49.20;;;;;;;-3.70;41.80;99471.28;5009081;28;20116;-63
2022/03/13 03:47:01;;;;;;;134.30;48.47;;;;;;;-3.72;42.07;99475.16;5009156;28;20034;-63
2022/03/13 03:49:27;;;;;;;131.63;50.08;;;;;;;-3.77;42.20;99470.31;5007345;28;20029;-63
2022/03/13 03:51:53;;;;;;;136.10;51.72;;;;;;;-3.81;42.21;99471.66;5008934;28;20033;-63
2022/03/13 03:54:19;;;;;;;130.27;50.22;;;;;;;-3.85;41.89;99470.34;5008665;28;20089;-63
2022/03/13 03:56:44;;;;;;;138.60;53.88;;;;;;;-3.88;42.04;99474.22;5008970;28;20355;-63
2022/03/13 03:59:10;;;;;;;150.07;53.63;;;;;;;-3.90;42.46;99469.06;5009909;28;20026;-63
2022/03/13 04:01:41;;;;;;;145.38;53.83;;;;;;;-3.91;42.64;99464.72;5010040;28;20026;-63
2022/03/13 04:04:08;;;;;;;163.13;60.78;;;;;;;-3.90;42.45;99468.22;5010052;28;20478;-63
2022/03/13 04:06:38;;;;;;;164.68;61.78;;;;;;;-3.87;42.78;99467.88;5010319;28;20033;-63
2022/03/13 04:09:04;;;;;;;;;;;;;;;-3.82;42.28;99470.84;5010798;28;20042;-63
2022/03/13 04:11:29;;;;;;;176.85;61.28;;;;;;;-3.81;42.89;99467.16;5009272;28;19983;-63
2022/03/13 04:13:55;;;;;;;175.13;66.80;;;;;;;-3.85;42.84;99465.00;5010001;28;20022;-62
2022/03/13 04:16:21;;;;;;;182.40;66.82;;;;;;;-3.89;42.52;99465.38;5010463;28;20030;-63
2022/03/13 04:18:47;;;;;;;192.25;69.25;;;;;;;-3.86;42.52;99466.00;5010287;28;20076;-63
2022/03/13 04:21:13;;;;;;;186.30;68.25;;;;;;;-3.83;43.20;99463.81;5010541;28;20030;-63
2022/03/13 04:23:38;;;;;;;182.82;68.43;;;;;;;-3.82;43.17;99461.97;5010166;28;20018;-63
2022/03/13 04:26:04;;;;;;;191.63;71.43;;;;;;;-3.83;43.26;99462.97;5008733;28;20136;-63
2022/03/13 04:28:30;;;;;;;184.52;71.18;;;;;;;-3.86;42.86;99464.16;5009045;28;20474;-63
2022/03/13 04:30:58;;;;;;;191.25;68.47;;;;;;;-3.86;43.07;99466.00;5010035;28;20104;-63
2022/03/13 04:33:28;;;;;;;189.40;67.55;;;;;;;-3.92;43.56;99462.19;5010113;28;20086;-63
2022/03/13 04:35:57;;;;;;;181.27;66.03;;;;;;;-3.96;43.49;99459.03;5009993;28;20062;-63
2022/03/13 04:38:26;;;;;;;171.82;64.57;;;;;;;-4.04;43.64;99461.78;5009973;28;20022;-63
2022/03/13 04:40:53;;;;;;;188.75;67.55;;;;;;;-4.04;43.55;99459.91;5010142;28;20034;-62
2022/03/13 04:43:19;;;;;;;176.63;70.13;;;;;;;-4.04;43.92;99467.94;5010066;28;20538;-63
2022/03/13 04:45:44;;;;;;;175.23;66.03;;;;;;;-4.01;43.54;99457.88;5007962;28;20026;-62
2022/03/13 04:48:10;;;;;;;154.38;60.20;;;;;;;-3.99;43.92;99463.91;5009517;28;20520;-63
2022/03/13 04:50:36;;;;;;;175.20;64.82;;;;;;;-4.00;43.84;99460.41;5010012;28;20045;-63
2022/03/13 04:53:01;;;;;;;172.20;66.78;;;;;;;-4.06;43.70;99464.63;5008390;28;20034;-63
2022/03/13 04:55:27;;;;;;;168.80;64.55;;;;;;;-4.10;44.08;99468.69;5012690;28;20026;-64
2022/03/13 04:57:53;;;;;;;178.70;66.88;;;;;;;-4.14;44.33;99477.22;5007364;28;20052;-63
2022/03/13 05:00:19;;;;;;;178.48;67.30;;;;;;;-4.17;44.03;99478.44;5009284;28;20036;-64
2022/03/13 05:02:45;;;;;;;178.60;68.68;;;;;;;-4.20;44.03;99479.59;5009718;28;20030;-63
2022/03/13 05:05:10;;;;;;;171.30;65.90;;;;;;;-4.23;44.33;99487.97;5012702;28;20589;-63
2022/03/13 05:07:38;;;;;;;180.85;69.28;;;;;;;-4.25;44.33;99490.00;5014219;28;20402;-64
2022/03/13 05:10:05;;;;;;;176.48;68.80;;;;;;;-4.24;44.78;99488.16;5013508;28;20057;-64
2022/03/13 05:12:32;;;;;;;180.70;70.97;;;;;;;-4.22;44.46;99492.31;5013804;28;20386;-63
2022/03/13 05:14:58;;;;;;;186.00;70.25;;;;;;;-4.21;44.50;99503.88;5012010;28;20030;-64
2022/03/13 05:17:23;;;;;;;180.38;71.25;;;;;;;-4.20;44.75;99503.69;5014058;28;20032;-64
2022/03/13 05:19:49;;;;;;;183.90;70.95;;;;;;;-4.15;44.71;99502.34;5012569;28;20030;-64
2022/03/13 05:22:14;;;;;;;177.00;67.53;;;;;;;-4.11;45.18;99499.16;5012237;28;20516;-64
2022/03/13 05:24:40;;;;;;;183.18;71.10;;;;;;;-4.13;44.80;99493.16;5011761;28;20053;-64
2022/03/13 05:27:05;;;;;;;178.15;69.38;;;;;;;-4.13;44.93;99500.31;5013814;28;20033;-63
2022/03/13 05:29:31;;;;;;;210.38;75.60;;;;;;;-4.11;45.61;99496.47;5011974;28;20072;-63
2022/03/13 05:31:56;;;;;;;204.35;74.90;;;;;;;-4.01;45.57;99495.41;5013349;28;20036;-64
2022/03/13 05:34:22;;;;;;;193.65;71.18;;;;;;;-3.92;45.50;99499.72;5013425;28;20477;-64
2022/03/13 05:36:47;;;;;;;192.27;70.88;;;;;;;-3.84;45.60;99504.19;5010343;28;20627;-64
2022/03/13 05:39:13;;;;;;;182.13;69.53;;;;;;;-3.80;45.39;99490.28;5013698;28;20474;-64
2022/03/13 05:41:39;;;;;;;190.32;68.95;;;;;;;-3.74;45.67;99494.94;5013446;28;20053;-64
2022/03/13 05:44:09;;;;;;;193.18;70.57;;;;;;;-3.70;45.19;99500.75;5013199;28;20032;-64
2022/03/13 05:46:35;;;;;;;199.20;73.50;;;;;;;-3.66;45.64;99499.41;5013383;28;20038;-64
2022/03/13 05:49:00;;;;;;;180.52;71.75;;;;;;;-3.60;45.52;99501.38;5013894;28;20030;-64
2022/03/13 05:51:26;;;;;;;182.25;67.25;;;;;;;-3.56;45.43;99501.84;5012173;28;20036;-64
2022/03/13 05:53:51;;;;;;;183.30;69.90;;;;;;;-3.48;45.85;99504.47;5013025;28;20131;-64
2022/03/13 05:56:17;;;;;;;173.43;67.45;;;;;;;-3.38;45.23;99506.06;5012880;28;20033;-64
2022/03/13 05:58:42;;;;;;;166.20;64.97;;;;;;;-3.32;45.44;99505.38;5013218;28;20034;-64
2022/03/13 06:01:08;;;;;;;178.75;69.95;;;;;;;-3.29;45.46;99508.50;5013304;28;20042;-63
2022/03/13 06:03:34;;;;;;;181.02;71.15;;;;;;;-3.24;45.49;99499.91;5011378;28;20105;-63
2022/03/13 06:06:03;;;;;;;175.85;70.28;;;;;;;-3.18;45.24;99509.09;5012588;28;20435;-64
2022/03/13 06:08:30;;;;;;;204.55;77.78;;;;;;;-3.15;45.48;99511.44;5013103;28;20052;-63
2022/03/13 06:10:57;;;;;;;196.95;78.65;;;;;;;-3.05;45.72;99506.63;5012940;28;20036;-64
2022/03/13 06:13:23;;;;;;;209.55;77.65;;;;;;;-2.97;45.27;99507.56;5008724;28;20030;-64
2022/03/13 06:15:49;;;;;;;224.30;80.97;;;;;;;-2.91;45.37;99504.16;5016808;28;20029;-63
2022/03/13 06:18:16;;;;;;;216.05;81.95;;;;;;;-2.86;45.57;99509.81;5031335;28;20040;-63
2022/03/13 06:20:41;;;;;;;238.07;86.65;;;;;;;-2.79;45.81;99510.75;5011977;28;20486;-64
2022/03/13 06:23:09;;;;;;;222.70;84.45;;;;;;;-2.71;45.69;99513.38;5032354;28;20022;-63
2022/03/13 06:25:35;;;;;;;235.73;88.35;;;;;;;-2.60;45.90;99512.06;5011347;28;20433;-64
2022/03/13 06:28:00;;;;;;;226.32;87.43;;;;;;;-2.50;46.35;99513.66;5012124;28;20025;-64
2022/03/13 06:30:26;;;;;;;217.02;82.10;;;;;;;-2.38;46.16;99519.41;5011675;28;20120;-64
2022/03/13 06:32:52;;;;;;;199.40;78.20;;;;;;;-2.27;46.14;99513.56;5012115;28;20100;-63
2022/03/13 06:35:20;;;;;;;200.05;76.72;;;;;;;-2.15;46.00;99512.03;5012168;28;20025;-64
2022/03/13 06:37:48;;;;;;;191.43;73.10;;;;;;;-2.07;45.88;99513.81;5012566;28;20041;-63
2022/03/13 06:40:16;;;;;;;185.60;73.25;;;;;;;-1.97;46.07;99522.41;5012325;28;20431;-64
2022/03/13 06:42:41;;;;;;;174.85;63.67;;;;;;;-1.85;46.26;99521.94;5031919;28;20029;-64
2022/03/13 06:45:10;;;;;;;150.70;60.10;;;;;;;-1.74;45.81;99517.91;5031999;28;20036;-64
2022/03/13 06:47:36;;;;;;;141.75;55.05;;;;;;;-1.61;45.66;99517.22;5014891;28;20033;-63
2022/03/13 06:50:02;;;;;;;130.02;52.38;;;;;;;-1.52;45.80;99519.63;5012275;28;20025;-63
2022/03/13 06:52:27;;;;;;;131.73;51.53;;;;;;;-1.40;45.53;99522.63;5012040;28;20014;-64
2022/03/13 06:54:53;;;;;;;136.50;53.90;;;;;;;-1.30;45.23;99519.59;5011442;28;20026;-63
2022/03/13 06:57:18;;;;;;;142.75;55.63;;;;;;;-1.17;45.27;99518.06;5011460;28;20057;-64
2022/03/13 06:59:44;;;;;;;150.70;57.30;;;;;;;-1.08;45.06;99515.03;5011894;28;20044;-64
2022/03/13 07:02:11;;;;;;;144.57;55.75;;;;;;;-0.95;45.03;99513.50;5011729;28;20026;-64
2022/03/13 07:04:37;;;;;;;141.32;55.33;;;;;;;-0.85;44.96;99518.53;5010907;28;20021;-64
2022/03/13 07:07:03;;;;;;;283.20;92.80;;;;;;;-0.76;44.97;99512.81;5014004;28;20018;-63
2022/03/13 07:09:28;;;;;;;316.70;102.60;;;;;;;-0.69;44.86;99522.81;5010927;28;20113;-64
2022/03/13 07:11:54;;;;;;;267.58;88.28;;;;;;;-0.64;45.20;99514.97;5010706;28;20723;-64
2022/03/13 07:14:21;;;;;;;374.10;111.95;;;;;;;-0.58;44.95;99507.94;5010880;28;20423;-64
2022/03/13 07:16:47;;;;;;;483.77;145.20;;;;;;;-0.50;45.04;99516.72;5008238;28;20056;-64
2022/03/13 07:19:12;;;;;;;398.50;118.40;;;;;;;-0.41;45.26;99514.69;5010613;28;20022;-64
2022/03/13 07:21:38;;;;;;;250.38;81.85;;;;;;;-0.35;45.54;99513.91;5010817;28;20072;-64
2022/03/13 07:24:04;;;;;;;354.85;111.07;;;;;;;-0.31;46.00;99515.19;5010829;28;20153;-63
2022/03/13 07:26:30;;;;;;;261.63;85.35;;;;;;;-0.25;45.75;99520.81;5011021;28;20111;-63
2022/03/13 07:28:55;;;;;;;442.20;138.68;;;;;;;-0.19;45.59;99514.59;5011808;28;20482;-63
2022/03/13 07:31:21;;;;;;;416.50;128.88;;;;;;;-0.08;45.63;99518.59;5010043;28;20029;-64
2022/03/13 07:33:47;;;;;;;411.70;122.10;;;;;;;0.04;45.99;99516.16;5011169;28;20493;-63
2022/03/13 07:36:12;;;;;;;355.95;109.40;;;;;;;0.18;45.59;99515.19;5007442;28;20029;-63
2022/03/13 07:38:38;;;;;;;283.02;90.75;;;;;;;0.29;45.45;99514.59;5010638;28;20505;-64
2022/03/13 07:41:03;;;;;;;176.93;62.30;;;;;;;0.42;45.11;99502.19;5011401;28;20040;-64
2022/03/13 07:43:29;;;;;;;196.32;67.05;;;;;;;0.56;45.00;99509.28;5010822;28;20106;-64
2022/03/13 07:45:55;;;;;;;153.23;55.83;;;;;;;0.71;45.33;99510.94;5011072;28;20029;-64
2022/03/13 07:48:20;;;;;;;110.32;44.22;;;;;;;0.83;44.65;99512.00;5011168;28;20026;-64
2022/03/13 07:50:45;;;;;;;81.10;34.30;;;;;;;0.95;44.48;99517.63;5008921;28;20018;-63
2022/03/13 07:53:11;;;;;;;86.55;36.22;;;;;;;1.09;44.26;99517.63;5009782;28;20033;-64
2022/03/13 07:55:36;;;;;;;75.30;30.92;;;;;;;1.19;43.52;99516.16;5010439;28;20037;-64
2022/03/13 07:58:02;;;;;;;79.13;34.30;;;;;;;1.30;43.00;99509.28;5010883;28;20116;-63
2022/03/13 08:00:27;;;;;;;105.13;43.70;;;;;;;1.38;42.97;99510.97;5011246;28;20389;-63
2022/03/13 08:02:53;;;;;;;115.15;45.67;;;;;;;1.47;42.43;99508.88;5010829;28;20061;-62
2022/03/13 08:05:21;;;;;;;103.45;41.97;;;;;;;1.59;42.23;99511.75;5009248;28;20022;-62
2022/03/13 08:07:49;;;;;;;105.30;44.47;;;;;;;1.70;42.50;99510.25;5011099;28;20045;-63
2022/03/13 08:10:20;;;;;;;110.90;45.85;;;;;;;1.77;42.48;99511.91;5011262;28;20053;-62
2022/03/13 08:12:47;;;;;;;104.80;43.70;;;;;;;1.86;41.86;99517.91;5010699;28;20030;-63
2022/03/13 08:15:13;;;;;;;99.25;41.88;;;;;;;1.96;41.85;99522.06;5010242;28;20037;-65
2022/03/13 08:17:38;;;;;;;83.53;36.53;;;;;;;2.03;41.41;99515.56;5011094;28;20022;-63
2022/03/13 08:20:05;;;;;;;109.20;43.85;;;;;;;2.12;41.48;99515.34;5010768;28;20030;-62
2022/03/13 08:22:31;;;;;;;97.97;40.63;;;;;;;2.27;40.69;99512.34;5010586;28;20037;-63
2022/03/13 08:24:57;;;;;;;83.55;35.05;;;;;;;2.40;41.20;99516.88;5010494;28;20018;-63
2022/03/13 08:27:22;;;;;;;87.75;39.50;;;;;;;2.46;40.96;99513.28;5011254;28;20467;-62
2022/03/13 08:29:48;;;;;;;104.70;42.85;;;;;;;2.56;40.42;99518.22;5010979;28;20038;-62
2022/03/13 08:32:15;;;;;;;93.18;38.92;;;;;;;2.61;40.17;99513.84;5010606;28;20044;-63
2022/03/13 08:34:42;;;;;;;90.88;40.33;;;;;;;2.72;39.96;99515.00;5015623;28;20551;-63
2022/03/13 08:37:08;;;;;;;84.95;37.80;;;;;;;2.84;40.21;99517.84;5014744;28;20497;-63
2022/03/13 08:39:35;;;;;;;102.95;45.80;;;;;;;2.91;40.34;99513.22;5013464;28;20026;-63
2022/03/13 08:42:00;;;;;;;101.65;44.22;;;;;;;3.01;40.55;99511.91;5012991;28;20036;-62
2022/03/13 08:44:26;;;;;;;96.65;40.90;;;;;;;3.12;39.62;99519.28;5014286;28;20025;-62
2022/03/13 08:46:51;;;;;;;88.30;40.38;;;;;;;3.22;39.62;99513.41;5014558;28;20022;-63
2022/03/13 08:49:17;;;;;;;81.07;36.38;;;;;;;3.28;38.74;99509.78;5014762;28;20030;-63
2022/03/13 08:51:42;;;;;;;90.43;38.72;;;;;;;3.38;38.64;99509.28;5014480;28;20034;-63
2022/03/13 08:54:08;;;;;;;79.22;35.50;;;;;;;3.47;38.36;99499.78;5013368;28;20030;-63
2022/03/13 08:56:35;;;;;;;78.00;35.42;;;;;;;3.55;38.88;99499.50;5013996;28;20105;-63
2022/03/13 08:59:01;;;;;;;78.30;34.75;;;;;;;3.64;38.14;99496.50;5013768;28;20026;-62
2022/03/13 09:01:27;;;;;;;91.05;38.90;;;;;;;3.69;37.61;99496.66;5013444;28;20030;-63
2022/03/13 09:03:53;;;;;;;96.72;41.83;;;;;;;3.72;37.92;99497.03;5013938;28;20079;-63
2022/03/13 09:06:18;;;;;;;87.22;38.20;;;;;;;3.78;37.17;99498.03;5012004;28;20034;-62
2022/03/13 09:08:44;;;;;;;90.43;37.50;;;;;;;3.87;37.31;99499.34;5013597;28;20041;-62
2022/03/13 09:11:10;;;;;;;71.43;33.70;;;;;;;3.94;36.52;99493.88;5014104;28;20544;-63
2022/03/13 09:13:36;;;;;;;67.22;32.45;;;;;;;4.08;37.17;99497.25;5013334;28;20088;-62
2022/03/13 09:16:02;;;;;;;69.28;30.60;;;;;;;4.26;37.71;99501.00;5012834;28;20076;-62
2022/03/13 09:18:30;;;;;;;69.60;34.38;;;;;;;4.39;37.18;99498.09;5013274;28;20034;-62
2022/03/13 09:20:56;;;;;;;86.20;38.53;;;;;;;4.56;36.57;99490.13;5011660;28;20033;-62
2022/03/13 09:23:21;;;;;;;85.43;36.45;;;;;;;4.74;36.78;99493.84;5013150;28;20497;-63
2022/03/13 09:25:47;;;;;;;61.03;28.02;;;;;;;4.87;36.32;99481.94;5013095;28;20030;-63
2022/03/13 09:28:12;;;;;;;82.82;34.28;;;;;;;4.98;36.47;99491.19;5013593;28;20026;-63
2022/03/13 09:30:38;;;;;;;59.58;29.05;;;;;;;5.10;35.88;99493.91;5012957;28;20033;-63
2022/03/13 09:33:04;;;;;;;58.70;25.90;;;;;;;5.22;35.50;99492.03;5011512;28;20030;-64
2022/03/13 09:35:30;;;;;;;62.38;28.38;;;;;;;5.32;35.75;99486.84;5011121;28;20125;-65
2022/03/13 09:37:55;;;;;;;55.83;26.67;;;;;;;5.43;35.52;99482.47;5012659;28;20156;-64
2022/03/13 09:40:21;;;;;;;58.90;28.10;;;;;;;5.58;36.28;99487.41;5013340;28;20029;-63
2022/03/13 09:42:47;;;;;;;57.00;27.10;;;;;;;5.71;35.14;99480.06;5013001;28;20041;-64
2022/03/13 09:45:14;;;;;;;56.03;26.95;;;;;;;5.85;35.39;99486.09;5013434;28;20022;-65
2022/03/13 09:47:40;;;;;;;56.83;28.63;;;;;;;5.99;35.04;99482.03;5011647;28;20026;-65
2022/03/13 09:50:07;;;;;;;50.13;24.85;;;;;;;6.07;34.47;99464.50;5011580;28;20106;-64
2022/03/13 09:52:33;;;;;;;53.80;27.30;;;;;;;6.15;34.75;99466.88;5012827;28;20433;-64
2022/03/13 09:55:00;;;;;;;56.70;28.17;;;;;;;6.29;34.94;99466.59;5012615;28;20398;-64
2022/03/13 09:57:25;;;;;;;50.42;26.40;;;;;;;6.39;34.66;99459.44;5012414;28;20047;-64
2022/03/13 09:59:51;;;;;;;62.72;30.40;;;;;;;6.51;34.74;99456.63;5012629;28;20034;-64
2022/03/13 10:02:17;;;;;;;50.35;24.20;;;;;;;6.65;34.29;99451.69;5018697;28;20520;-64
2022/03/13 10:04:42;;;;;;;50.38;25.65;;;;;;;6.77;33.59;99450.81;5014230;28;20401;-64
2022/03/13 10:07:10;;;;;;;48.15;23.25;;;;;;;6.84;33.91;99441.38;5009607;28;20026;-64
2022/03/13 10:09:38;;;;;;;51.88;24.05;;;;;;;6.94;33.52;99440.72;5011672;28;20042;-64
2022/03/13 10:12:08;;;;;;;47.60;23.55;;;;;;;7.05;33.61;99451.81;5012517;28;20049;-64
2022/03/13 10:14:53;;;;;;;44.90;23.77;;;;;;;7.19;32.46;99450.41;5012499;28;20041;-63
2022/03/13 10:17:33;;;;;;;33.22;16.75;;;;;;;7.33;32.60;99447.34;5011726;28;20034;-64
2022/03/13 10:20:27;;;;;;;39.70;20.63;;;;;;;7.45;32.27;99448.88;5010998;28;20045;-64
2022/03/13 10:23:01;;;;;;;43.03;20.67;;;;;;;7.54;30.78;99446.53;5010220;28;20038;-64
2022/03/13 10:25:35;;;;;;;43.75;21.30;;;;;;;7.60;29.99;99448.25;5010555;28;20028;-64
2022/03/13 10:28:24;;;;;;;40.50;20.52;;;;;;;7.70;29.89;99438.56;5011702;28;20038;-63
2022/03/13 10:30:58;;;;;;;38.28;19.33;;;;;;;7.71;29.47;99442.94;5008837;28;20530;-63
2022/03/13 10:33:29;;;;;;;36.10;18.55;;;;;;;7.70;28.99;99436.63;5010924;28;20041;-66
2022/03/13 10:36:14;;;;;;;41.38;22.35;;;;;;;7.75;29.65;99436.72;5011241;28;20101;-65
2022/03/13 10:38:42;;;;;;;34.33;17.40;;;;;;;7.84;29.61;99433.53;5008020;28;20026;-64
2022/03/13 10:41:12;;;;;;;35.28;18.75;;;;;;;7.92;28.96;99432.25;5010457;28;20026;-64
2022/03/13 10:43:51;;;;;;;40.50;20.42;;;;;;;8.02;29.11;99424.19;5010653;28;20101;-64
2022/03/13 10:46:27;;;;;;;36.70;19.75;;;;;;;8.12;29.31;99428.94;5007311;28;20032;-65
2022/03/13 10:48:54;;;;;;;36.45;19.45;;;;;;;8.15;29.00;99426.50;5010209;28;20057;-62
2022/03/13 10:51:32;;;;;;;51.05;25.70;;;;;;;8.13;28.92;99422.41;5010338;28;20025;-62
2022/03/13 10:53:58;;;;;;;36.35;19.75;;;;;;;8.21;29.30;99416.47;5008751;28;20030;-65
2022/03/13 10:56:24;;;;;;;37.35;19.38;;;;;;;8.32;27.73;99420.97;5009106;28;20022;-64
2022/03/13 10:58:49;;;;;;;35.70;18.92;;;;;;;8.45;28.00;99418.91;5009882;28;20029;-62
2022/03/13 11:01:17;;;;;;;38.58;21.13;;;;;;;8.57;29.00;99418.75;5009088;28;20184;-62
2022/03/13 11:03:54;;;;;;;37.67;22.45;;;;;;;8.76;28.84;99413.75;5010027;28;20057;-62
2022/03/13 11:06:21;;;;;;;29.52;16.17;;;;;;;8.88;27.45;99406.19;5010462;28;20053;-62
2022/03/13 11:08:50;;;;;;;29.23;15.02;;;;;;;8.91;26.58;99410.31;5007156;28;20417;-62
2022/03/13 11:11:19;;;;;;;30.83;17.75;;;;;;;9.01;27.30;99402.16;5010627;28;20026;-62
2022/03/13 11:13:51;;;;;;;34.05;18.33;;;;;;;9.10;26.40;99408.00;5010110;28;20022;-63